sensor_id;sensor_type;location;lat;lon;timestamp;temperature;humidity
14093;DHT22;7123;49.468;10.992;2023-04-09T00:01:39;9.40;99.90
14093;DHT22;7123;49.468;10.992;2023-04-09T00:04:05;9.40;99.90
14093;DHT22;7123;49.468;10.992;2023-04-09T00:06:32;9.40;99.90
14093;DHT22;7123;49.468;10.992;2023-04-09T00:08:59;9.40;99.90
14093;DHT22;7123;49.468;10.992;2023-04-09T00:11:26;9.40;99.90
14093;DHT22;7123;49.468;10.992;2023-04-09T00:13:52;9.40;99.90
14093;DHT22;7123;49.468;10.992;2023-04-09T00:16:19;9.40;99.90
14093;DHT22;7123;49.468;10.992;2023-04-09T00:18:46;9.40;99.90
14093;DHT22;7123;49.468;10.992;2023-04-09T00:21:13;9.40;99.90
14093;DHT22;7123;49.468;10.992;2023-04-09T00:23:41;9.30;99.90
14093;DHT22;7123;49.468;10.992;2023-04-09T00:26:08;9.30;99.90
14093;DHT22;7123;49.468;10.992;2023-04-09T00:28:35;9.30;99.90
14093;DHT22;7123;49.468;10.992;2023-04-09T00:31:02;9.30;99.90
14093;DHT22;7123;49.468;10.992;2023-04-09T00:33:28;9.30;99.90
14093;DHT22;7123;49.468;10.992;2023-04-09T00:35:55;9.30;99.90
14093;DHT22;7123;49.468;10.992;2023-04-09T00:38:22;9.30;99.90
14093;DHT22;7123;49.468;10.992;2023-04-09T00:40:50;9.30;99.90
14093;DHT22;7123;49.468;10.992;2023-04-09T00:43:17;9.30;99.90
14093;DHT22;7123;49.468;10.992;2023-04-09T00:45:44;9.20;99.90
14093;DHT22;7123;49.468;10.992;2023-04-09T00:48:12;9.20;99.90
14093;DHT22;7123;49.468;10.992;2023-04-09T00:50:39;9.20;99.90
14093;DHT22;7123;49.468;10.992;2023-04-09T00:53:08;9.20;99.90
14093;DHT22;7123;49.468;10.992;2023-04-09T00:55:35;9.20;99.90
14093;DHT22;7123;49.468;10.992;2023-04-09T00:58:04;9.20;99.90
14093;DHT22;7123;49.468;10.992;2023-04-09T01:00:31;9.20;99.90
14093;DHT22;7123;49.468;10.992;2023-04-09T01:02:59;9.30;99.90
14093;DHT22;7123;49.468;10.992;2023-04-09T01:11:01;9.20;99.90
14093;DHT22;7123;49.468;10.992;2023-04-09T01:13:41;9.20;99.90
14093;DHT22;7123;49.468;10.992;2023-04-09T01:16:12;9.20;99.90
14093;DHT22;7123;49.468;10.992;2023-04-09T01:18:55;9.20;99.90
14093;DHT22;7123;49.468;10.992;2023-04-09T01:21:30;9.20;99.90
14093;DHT22;7123;49.468;10.992;2023-04-09T01:24:09;9.20;99.90
14093;DHT22;7123;49.468;10.992;2023-04-09T01:29:33;9.20;99.90
14093;DHT22;7123;49.468;10.992;2023-04-09T01:32:01;9.20;99.90
14093;DHT22;7123;49.468;10.992;2023-04-09T01:34:29;9.20;99.90
14093;DHT22;7123;49.468;10.992;2023-04-09T01:36:59;9.30;99.90
14093;DHT22;7123;49.468;10.992;2023-04-09T01:39:26;9.30;99.90
14093;DHT22;7123;49.468;10.992;2023-04-09T01:41:54;9.20;99.90
14093;DHT22;7123;49.468;10.992;2023-04-09T01:44:24;9.20;99.90
14093;DHT22;7123;49.468;10.992;2023-04-09T01:46:53;9.20;99.90
14093;DHT22;7123;49.468;10.992;2023-04-09T01:49:21;9.20;99.90
14093;DHT22;7123;49.468;10.992;2023-04-09T01:51:48;9.20;99.90
14093;DHT22;7123;49.468;10.992;2023-04-09T01:54:15;9.20;99.90
14093;DHT22;7123;49.468;10.992;2023-04-09T01:56:47;9.20;99.90
14093;DHT22;7123;49.468;10.992;2023-04-09T01:59:14;9.10;99.90
14093;DHT22;7123;49.468;10.992;2023-04-09T02:01:54;9.10;99.90
14093;DHT22;7123;49.468;10.992;2023-04-09T02:04:34;9.10;99.90
14093;DHT22;7123;49.468;10.992;2023-04-09T02:07:25;9.10;99.90
14093;DHT22;7123;49.468;10.992;2023-04-09T02:09:55;9.10;99.90
14093;DHT22;7123;49.468;10.992;2023-04-09T02:12:24;9.10;99.90
14093;DHT22;7123;49.468;10.992;2023-04-09T02:14:55;9.10;99.90
14093;DHT22;7123;49.468;10.992;2023-04-09T02:17:22;9.10;99.90
14093;DHT22;7123;49.468;10.992;2023-04-09T02:19:49;9.10;99.90
14093;DHT22;7123;49.468;10.992;2023-04-09T02:22:16;9.10;99.90
14093;DHT22;7123;49.468;10.992;2023-04-09T02:24:43;9.10;99.90
14093;DHT22;7123;49.468;10.992;2023-04-09T02:27:09;9.10;99.90
14093;DHT22;7123;49.468;10.992;2023-04-09T02:29:38;9.10;99.90
14093;DHT22;7123;49.468;10.992;2023-04-09T02:32:05;9.10;99.90
14093;DHT22;7123;49.468;10.992;2023-04-09T02:34:32;9.10;99.90
14093;DHT22;7123;49.468;10.992;2023-04-09T02:36:58;9.10;99.90
14093;DHT22;7123;49.468;10.992;2023-04-09T02:39:25;9.10;99.90
14093;DHT22;7123;49.468;10.992;2023-04-09T02:41:52;9.10;99.90
14093;DHT22;7123;49.468;10.992;2023-04-09T02:44:19;9.10;99.90
14093;DHT22;7123;49.468;10.992;2023-04-09T02:46:46;9.10;99.90
14093;DHT22;7123;49.468;10.992;2023-04-09T02:49:15;9.20;99.90
14093;DHT22;7123;49.468;10.992;2023-04-09T02:51:41;9.20;99.90
14093;DHT22;7123;49.468;10.992;2023-04-09T02:54:08;9.20;99.90
14093;DHT22;7123;49.468;10.992;2023-04-09T02:56:35;9.20;99.90
14093;DHT22;7123;49.468;10.992;2023-04-09T02:59:01;9.20;99.90
14093;DHT22;7123;49.468;10.992;2023-04-09T03:01:28;9.20;99.90
14093;DHT22;7123;49.468;10.992;2023-04-09T03:03:55;9.10;99.90
14093;DHT22;7123;49.468;10.992;2023-04-09T03:06:22;9.20;99.90
14093;DHT22;7123;49.468;10.992;2023-04-09T03:08:48;9.20;99.90
14093;DHT22;7123;49.468;10.992;2023-04-09T03:11:16;9.10;99.90
14093;DHT22;7123;49.468;10.992;2023-04-09T03:13:42;9.10;99.90
14093;DHT22;7123;49.468;10.992;2023-04-09T03:16:09;9.10;99.90
14093;DHT22;7123;49.468;10.992;2023-04-09T03:18:36;9.10;99.90
14093;DHT22;7123;49.468;10.992;2023-04-09T03:21:06;9.10;99.90
14093;DHT22;7123;49.468;10.992;2023-04-09T03:23:33;9.10;99.90
14093;DHT22;7123;49.468;10.992;2023-04-09T03:26:02;9.10;99.90
14093;DHT22;7123;49.468;10.992;2023-04-09T03:28:29;9.00;99.90
14093;DHT22;7123;49.468;10.992;2023-04-09T03:30:56;9.00;99.90
14093;DHT22;7123;49.468;10.992;2023-04-09T03:33:23;9.00;99.90
14093;DHT22;7123;49.468;10.992;2023-04-09T03:35:51;9.00;99.90
14093;DHT22;7123;49.468;10.992;2023-04-09T03:38:18;9.10;99.90
14093;DHT22;7123;49.468;10.992;2023-04-09T03:40:45;9.00;99.90
14093;DHT22;7123;49.468;10.992;2023-04-09T03:43:11;8.90;99.90
14093;DHT22;7123;49.468;10.992;2023-04-09T03:45:38;8.90;99.90
14093;DHT22;7123;49.468;10.992;2023-04-09T03:48:05;8.90;99.90
14093;DHT22;7123;49.468;10.992;2023-04-09T03:50:37;8.90;99.90
14093;DHT22;7123;49.468;10.992;2023-04-09T03:53:04;8.90;99.90
14093;DHT22;7123;49.468;10.992;2023-04-09T03:55:31;8.90;99.90
14093;DHT22;7123;49.468;10.992;2023-04-09T03:57:58;8.80;99.90
14093;DHT22;7123;49.468;10.992;2023-04-09T04:00:24;8.80;99.90
14093;DHT22;7123;49.468;10.992;2023-04-09T04:02:51;8.80;99.90
14093;DHT22;7123;49.468;10.992;2023-04-09T04:05:22;8.80;99.90
14093;DHT22;7123;49.468;10.992;2023-04-09T04:07:48;8.70;99.90
14093;DHT22;7123;49.468;10.992;2023-04-09T04:10:15;8.70;99.90
14093;DHT22;7123;49.468;10.992;2023-04-09T04:12:42;8.70;99.90
14093;DHT22;7123;49.468;10.992;2023-04-09T04:15:09;8.70;99.90
14093;DHT22;7123;49.468;10.992;2023-04-09T04:17:36;8.70;99.90
14093;DHT22;7123;49.468;10.992;2023-04-09T04:20:02;8.70;99.90
14093;DHT22;7123;49.468;10.992;2023-04-09T04:22:29;8.70;99.90
14093;DHT22;7123;49.468;10.992;2023-04-09T04:24:56;8.60;99.90
14093;DHT22;7123;49.468;10.992;2023-04-09T04:27:22;8.60;99.90
14093;DHT22;7123;49.468;10.992;2023-04-09T04:29:49;8.60;99.90
14093;DHT22;7123;49.468;10.992;2023-04-09T04:32:16;8.60;99.90
14093;DHT22;7123;49.468;10.992;2023-04-09T04:34:42;8.60;99.90
14093;DHT22;7123;49.468;10.992;2023-04-09T04:37:09;8.60;99.90
14093;DHT22;7123;49.468;10.992;2023-04-09T04:39:38;8.60;99.90
14093;DHT22;7123;49.468;10.992;2023-04-09T04:42:05;8.50;99.90
14093;DHT22;7123;49.468;10.992;2023-04-09T04:44:31;8.50;99.90
14093;DHT22;7123;49.468;10.992;2023-04-09T04:46:58;8.50;99.90
14093;DHT22;7123;49.468;10.992;2023-04-09T04:49:26;8.50;99.90
14093;DHT22;7123;49.468;10.992;2023-04-09T04:51:53;8.50;99.90
14093;DHT22;7123;49.468;10.992;2023-04-09T04:54:19;8.50;99.90
14093;DHT22;7123;49.468;10.992;2023-04-09T04:56:46;8.50;99.90
14093;DHT22;7123;49.468;10.992;2023-04-09T04:59:13;8.40;99.90
14093;DHT22;7123;49.468;10.992;2023-04-09T05:01:39;8.50;99.90
14093;DHT22;7123;49.468;10.992;2023-04-09T05:04:06;8.50;99.90
14093;DHT22;7123;49.468;10.992;2023-04-09T05:06:33;8.50;99.90
14093;DHT22;7123;49.468;10.992;2023-04-09T05:09:00;8.50;99.90
14093;DHT22;7123;49.468;10.992;2023-04-09T05:11:27;8.50;99.90
14093;DHT22;7123;49.468;10.992;2023-04-09T05:13:53;8.50;99.90
14093;DHT22;7123;49.468;10.992;2023-04-09T05:16:20;8.70;99.90
14093;DHT22;7123;49.468;10.992;2023-04-09T05:18:47;8.50;99.90
14093;DHT22;7123;49.468;10.992;2023-04-09T05:21:14;8.60;99.90
14093;DHT22;7123;49.468;10.992;2023-04-09T05:23:41;8.60;99.90
14093;DHT22;7123;49.468;10.992;2023-04-09T05:26:08;8.60;99.90
14093;DHT22;7123;49.468;10.992;2023-04-09T05:28:36;8.60;99.90
14093;DHT22;7123;49.468;10.992;2023-04-09T05:31:03;8.60;99.90
14093;DHT22;7123;49.468;10.992;2023-04-09T05:33:30;8.60;99.90
14093;DHT22;7123;49.468;10.992;2023-04-09T05:36:03;8.60;99.90
14093;DHT22;7123;49.468;10.992;2023-04-09T05:38:30;8.60;99.90
14093;DHT22;7123;49.468;10.992;2023-04-09T05:40:57;8.60;99.90
14093;DHT22;7123;49.468;10.992;2023-04-09T05:43:23;8.60;99.90
14093;DHT22;7123;49.468;10.992;2023-04-09T05:45:50;8.60;99.90
14093;DHT22;7123;49.468;10.992;2023-04-09T05:48:17;8.60;99.90
14093;DHT22;7123;49.468;10.992;2023-04-09T05:50:49;8.70;99.90
14093;DHT22;7123;49.468;10.992;2023-04-09T05:53:20;8.70;99.90
14093;DHT22;7123;49.468;10.992;2023-04-09T05:55:47;8.70;99.90
14093;DHT22;7123;49.468;10.992;2023-04-09T05:58:17;8.70;99.90
14093;DHT22;7123;49.468;10.992;2023-04-09T06:00:45;8.80;99.90
14093;DHT22;7123;49.468;10.992;2023-04-09T06:03:11;8.80;99.90
14093;DHT22;7123;49.468;10.992;2023-04-09T06:05:39;8.80;99.90
14093;DHT22;7123;49.468;10.992;2023-04-09T06:08:05;8.90;99.90
14093;DHT22;7123;49.468;10.992;2023-04-09T06:10:32;8.90;99.90
14093;DHT22;7123;49.468;10.992;2023-04-09T06:12:59;8.90;99.90
14093;DHT22;7123;49.468;10.992;2023-04-09T06:15:26;8.90;99.90
14093;DHT22;7123;49.468;10.992;2023-04-09T06:17:53;8.90;99.90
14093;DHT22;7123;49.468;10.992;2023-04-09T06:20:22;9.00;99.90
14093;DHT22;7123;49.468;10.992;2023-04-09T06:22:49;9.00;99.90
14093;DHT22;7123;49.468;10.992;2023-04-09T06:25:16;9.00;99.90
14093;DHT22;7123;49.468;10.992;2023-04-09T06:27:43;9.00;99.90
14093;DHT22;7123;49.468;10.992;2023-04-09T06:30:10;9.00;99.90
14093;DHT22;7123;49.468;10.992;2023-04-09T06:32:37;9.00;99.90
14093;DHT22;7123;49.468;10.992;2023-04-09T06:35:19;9.10;99.90
14093;DHT22;7123;49.468;10.992;2023-04-09T06:37:46;9.10;99.90
14093;DHT22;7123;49.468;10.992;2023-04-09T06:40:13;9.10;99.90
14093;DHT22;7123;49.468;10.992;2023-04-09T06:42:40;9.20;99.90
14093;DHT22;7123;49.468;10.992;2023-04-09T06:45:07;9.20;99.90
14093;DHT22;7123;49.468;10.992;2023-04-09T06:47:34;9.20;99.90
14093;DHT22;7123;49.468;10.992;2023-04-09T06:50:02;9.20;99.90
14093;DHT22;7123;49.468;10.992;2023-04-09T06:52:29;9.20;99.90
14093;DHT22;7123;49.468;10.992;2023-04-09T06:54:55;9.20;99.90
14093;DHT22;7123;49.468;10.992;2023-04-09T06:57:22;9.20;99.90
14093;DHT22;7123;49.468;10.992;2023-04-09T06:59:49;9.30;99.90
14093;DHT22;7123;49.468;10.992;2023-04-09T07:02:15;9.30;99.90
14093;DHT22;7123;49.468;10.992;2023-04-09T07:04:42;9.30;99.90
14093;DHT22;7123;49.468;10.992;2023-04-09T07:07:11;9.30;99.90
14093;DHT22;7123;49.468;10.992;2023-04-09T07:09:38;9.40;99.90
14093;DHT22;7123;49.468;10.992;2023-04-09T07:12:04;9.40;99.90
14093;DHT22;7123;49.468;10.992;2023-04-09T07:14:31;9.40;99.90
14093;DHT22;7123;49.468;10.992;2023-04-09T07:16:58;9.40;99.90
14093;DHT22;7123;49.468;10.992;2023-04-09T07:19:25;9.50;99.90
14093;DHT22;7123;49.468;10.992;2023-04-09T07:21:51;9.50;99.90
14093;DHT22;7123;49.468;10.992;2023-04-09T07:24:18;9.50;99.90
14093;DHT22;7123;49.468;10.992;2023-04-09T07:26:45;9.50;99.90
14093;DHT22;7123;49.468;10.992;2023-04-09T07:29:12;9.50;99.90
14093;DHT22;7123;49.468;10.992;2023-04-09T07:31:38;9.60;99.90
14093;DHT22;7123;49.468;10.992;2023-04-09T07:34:05;9.60;99.90
14093;DHT22;7123;49.468;10.992;2023-04-09T07:36:32;9.60;99.90
14093;DHT22;7123;49.468;10.992;2023-04-09T07:38:59;9.60;99.90
14093;DHT22;7123;49.468;10.992;2023-04-09T07:41:25;9.70;99.90
14093;DHT22;7123;49.468;10.992;2023-04-09T07:43:52;9.70;99.90
14093;DHT22;7123;49.468;10.992;2023-04-09T07:46:19;9.70;99.90
14093;DHT22;7123;49.468;10.992;2023-04-09T07:48:47;9.70;99.90
14093;DHT22;7123;49.468;10.992;2023-04-09T07:51:15;9.80;99.90
14093;DHT22;7123;49.468;10.992;2023-04-09T07:53:42;9.80;99.90
14093;DHT22;7123;49.468;10.992;2023-04-09T07:56:09;9.90;99.90
14093;DHT22;7123;49.468;10.992;2023-04-09T07:58:36;9.90;99.90
14093;DHT22;7123;49.468;10.992;2023-04-09T08:01:05;9.90;99.90
14093;DHT22;7123;49.468;10.992;2023-04-09T08:03:32;9.90;99.90
14093;DHT22;7123;49.468;10.992;2023-04-09T08:05:59;10.00;99.90
14093;DHT22;7123;49.468;10.992;2023-04-09T08:08:26;10.00;99.90
14093;DHT22;7123;49.468;10.992;2023-04-09T08:10:53;10.00;99.90
14093;DHT22;7123;49.468;10.992;2023-04-09T08:13:22;10.00;99.90
14093;DHT22;7123;49.468;10.992;2023-04-09T08:15:49;10.00;99.90
14093;DHT22;7123;49.468;10.992;2023-04-09T08:18:16;10.00;99.90
14093;DHT22;7123;49.468;10.992;2023-04-09T08:20:43;10.10;99.90
14093;DHT22;7123;49.468;10.992;2023-04-09T08:23:11;10.10;99.90
14093;DHT22;7123;49.468;10.992;2023-04-09T08:25:38;10.10;99.90
14093;DHT22;7123;49.468;10.992;2023-04-09T08:28:04;10.10;99.90
14093;DHT22;7123;49.468;10.992;2023-04-09T08:30:31;10.20;99.90
14093;DHT22;7123;49.468;10.992;2023-04-09T08:33:00;10.20;99.90
14093;DHT22;7123;49.468;10.992;2023-04-09T08:35:29;10.30;99.90
14093;DHT22;7123;49.468;10.992;2023-04-09T08:37:56;10.30;99.90
14093;DHT22;7123;49.468;10.992;2023-04-09T08:40:23;10.30;99.90
14093;DHT22;7123;49.468;10.992;2023-04-09T08:42:54;10.40;99.90
14093;DHT22;7123;49.468;10.992;2023-04-09T08:45:23;10.40;99.90
14093;DHT22;7123;49.468;10.992;2023-04-09T08:47:50;10.40;99.90
14093;DHT22;7123;49.468;10.992;2023-04-09T08:50:18;10.40;99.90
14093;DHT22;7123;49.468;10.992;2023-04-09T08:52:45;10.40;99.90
14093;DHT22;7123;49.468;10.992;2023-04-09T08:55:15;10.50;99.90
14093;DHT22;7123;49.468;10.992;2023-04-09T08:57:42;10.50;99.90
14093;DHT22;7123;49.468;10.992;2023-04-09T09:00:09;10.50;99.90
14093;DHT22;7123;49.468;10.992;2023-04-09T09:02:36;10.50;99.90
14093;DHT22;7123;49.468;10.992;2023-04-09T09:05:05;10.60;99.90
14093;DHT22;7123;49.468;10.992;2023-04-09T09:07:32;10.60;99.90
14093;DHT22;7123;49.468;10.992;2023-04-09T09:10:01;10.60;99.90
14093;DHT22;7123;49.468;10.992;2023-04-09T09:12:37;10.70;99.90
14093;DHT22;7123;49.468;10.992;2023-04-09T09:15:24;10.70;99.90
14093;DHT22;7123;49.468;10.992;2023-04-09T09:17:54;10.70;99.90
14093;DHT22;7123;49.468;10.992;2023-04-09T09:20:22;10.70;99.90
14093;DHT22;7123;49.468;10.992;2023-04-09T09:22:52;10.70;99.90
14093;DHT22;7123;49.468;10.992;2023-04-09T09:25:21;10.70;99.90
14093;DHT22;7123;49.468;10.992;2023-04-09T09:27:53;10.70;99.90
14093;DHT22;7123;49.468;10.992;2023-04-09T09:30:25;10.70;99.90
14093;DHT22;7123;49.468;10.992;2023-04-09T09:33:09;10.80;99.90
14093;DHT22;7123;49.468;10.992;2023-04-09T09:35:52;10.80;99.90
14093;DHT22;7123;49.468;10.992;2023-04-09T09:38:20;10.90;99.90
14093;DHT22;7123;49.468;10.992;2023-04-09T09:40:48;10.90;99.90
14093;DHT22;7123;49.468;10.992;2023-04-09T09:43:15;11.00;99.90
14093;DHT22;7123;49.468;10.992;2023-04-09T09:45:41;11.00;99.90
14093;DHT22;7123;49.468;10.992;2023-04-09T09:48:10;11.00;99.90
14093;DHT22;7123;49.468;10.992;2023-04-09T09:50:38;11.10;99.90
14093;DHT22;7123;49.468;10.992;2023-04-09T09:53:09;11.20;99.90
14093;DHT22;7123;49.468;10.992;2023-04-09T09:55:42;11.10;99.90
14093;DHT22;7123;49.468;10.992;2023-04-09T09:58:16;11.10;99.90
14093;DHT22;7123;49.468;10.992;2023-04-09T10:00:45;11.20;99.90
14093;DHT22;7123;49.468;10.992;2023-04-09T10:03:18;11.20;99.90
14093;DHT22;7123;49.468;10.992;2023-04-09T10:05:47;11.20;99.90
14093;DHT22;7123;49.468;10.992;2023-04-09T10:08:14;11.10;99.90
14093;DHT22;7123;49.468;10.992;2023-04-09T10:10:42;11.10;99.90
14093;DHT22;7123;49.468;10.992;2023-04-09T10:13:14;11.10;99.90
14093;DHT22;7123;49.468;10.992;2023-04-09T10:15:43;11.10;99.90
14093;DHT22;7123;49.468;10.992;2023-04-09T10:18:10;11.10;99.90
14093;DHT22;7123;49.468;10.992;2023-04-09T10:20:45;11.20;99.90
14093;DHT22;7123;49.468;10.992;2023-04-09T10:23:21;11.20;99.90
14093;DHT22;7123;49.468;10.992;2023-04-09T10:25:49;11.40;99.90
14093;DHT22;7123;49.468;10.992;2023-04-09T10:28:17;11.40;99.90
14093;DHT22;7123;49.468;10.992;2023-04-09T10:30:44;11.40;99.90
14093;DHT22;7123;49.468;10.992;2023-04-09T10:33:13;11.30;99.90
14093;DHT22;7123;49.468;10.992;2023-04-09T10:35:40;11.40;99.90
14093;DHT22;7123;49.468;10.992;2023-04-09T10:38:08;11.30;99.90
14093;DHT22;7123;49.468;10.992;2023-04-09T10:40:55;11.40;99.90
14093;DHT22;7123;49.468;10.992;2023-04-09T10:43:23;11.30;99.90
14093;DHT22;7123;49.468;10.992;2023-04-09T10:45:49;11.30;99.90
14093;DHT22;7123;49.468;10.992;2023-04-09T10:48:20;11.30;99.90
14093;DHT22;7123;49.468;10.992;2023-04-09T10:50:51;11.30;99.90
14093;DHT22;7123;49.468;10.992;2023-04-09T10:53:25;11.20;99.90
14093;DHT22;7123;49.468;10.992;2023-04-09T10:55:52;11.20;99.90
14093;DHT22;7123;49.468;10.992;2023-04-09T10:58:19;11.20;99.90
14093;DHT22;7123;49.468;10.992;2023-04-09T11:00:48;11.20;99.90
14093;DHT22;7123;49.468;10.992;2023-04-09T11:03:22;11.30;99.90
14093;DHT22;7123;49.468;10.992;2023-04-09T11:05:52;11.40;99.90
14093;DHT22;7123;49.468;10.992;2023-04-09T11:08:22;11.50;99.90
14093;DHT22;7123;49.468;10.992;2023-04-09T11:10:49;11.40;99.90
14093;DHT22;7123;49.468;10.992;2023-04-09T11:13:18;11.50;99.90
14093;DHT22;7123;49.468;10.992;2023-04-09T11:15:46;11.50;99.90
14093;DHT22;7123;49.468;10.992;2023-04-09T11:18:16;11.50;99.90
14093;DHT22;7123;49.468;10.992;2023-04-09T11:20:45;11.60;99.90
14093;DHT22;7123;49.468;10.992;2023-04-09T11:23:12;11.70;99.90
14093;DHT22;7123;49.468;10.992;2023-04-09T11:25:39;11.70;99.90
14093;DHT22;7123;49.468;10.992;2023-04-09T11:28:06;11.70;99.90
14093;DHT22;7123;49.468;10.992;2023-04-09T11:30:34;11.70;99.90
14093;DHT22;7123;49.468;10.992;2023-04-09T11:33:01;11.80;99.90
14093;DHT22;7123;49.468;10.992;2023-04-09T11:35:28;11.90;99.90
14093;DHT22;7123;49.468;10.992;2023-04-09T11:37:55;11.80;99.90
14093;DHT22;7123;49.468;10.992;2023-04-09T11:40:23;11.80;99.90
14093;DHT22;7123;49.468;10.992;2023-04-09T11:42:52;11.80;99.90
14093;DHT22;7123;49.468;10.992;2023-04-09T11:45:24;11.80;99.90
14093;DHT22;7123;49.468;10.992;2023-04-09T11:47:52;11.90;99.90
14093;DHT22;7123;49.468;10.992;2023-04-09T11:50:19;11.90;99.90
14093;DHT22;7123;49.468;10.992;2023-04-09T11:52:49;11.90;99.90
14093;DHT22;7123;49.468;10.992;2023-04-09T11:55:23;11.90;99.90
14093;DHT22;7123;49.468;10.992;2023-04-09T11:58:00;12.00;99.90
14093;DHT22;7123;49.468;10.992;2023-04-09T12:00:27;12.00;99.90
14093;DHT22;7123;49.468;10.992;2023-04-09T12:03:02;12.00;99.90
14093;DHT22;7123;49.468;10.992;2023-04-09T12:05:31;12.00;99.90
14093;DHT22;7123;49.468;10.992;2023-04-09T12:08:00;12.00;99.90
14093;DHT22;7123;49.468;10.992;2023-04-09T12:10:29;12.00;99.90
14093;DHT22;7123;49.468;10.992;2023-04-09T12:13:07;12.00;99.90
14093;DHT22;7123;49.468;10.992;2023-04-09T12:15:37;12.00;99.90
14093;DHT22;7123;49.468;10.992;2023-04-09T12:18:08;12.00;99.90
